sensor_id;sensor_type;location;lat;lon;timestamp;temperature;humidity
73137;DHT22;62977;45.636;11.750;2022-08-19T00:01:53;23.00;75.00
73137;DHT22;62977;45.636;11.750;2022-08-19T00:04:22;23.00;75.40
73137;DHT22;62977;45.636;11.750;2022-08-19T00:06:48;22.70;75.60
73137;DHT22;62977;45.636;11.750;2022-08-19T00:09:16;22.50;76.00
73137;DHT22;62977;45.636;11.750;2022-08-19T00:11:43;22.60;76.20
73137;DHT22;62977;45.636;11.750;2022-08-19T00:14:10;22.80;75.80
73137;DHT22;62977;45.636;11.750;2022-08-19T00:16:40;22.90;75.60
73137;DHT22;62977;45.636;11.750;2022-08-19T00:19:06;23.10;76.00
73137;DHT22;62977;45.636;11.750;2022-08-19T00:21:32;23.00;75.90
73137;DHT22;62977;45.636;11.750;2022-08-19T00:23:58;23.00;75.90
73137;DHT22;62977;45.636;11.750;2022-08-19T00:26:25;23.00;75.80
73137;DHT22;62977;45.636;11.750;2022-08-19T00:28:51;23.00;76.20
73137;DHT22;62977;45.636;11.750;2022-08-19T00:31:17;22.90;76.30
73137;DHT22;62977;45.636;11.750;2022-08-19T00:33:43;22.60;76.60
73137;DHT22;62977;45.636;11.750;2022-08-19T00:36:09;22.70;77.10
73137;DHT22;62977;45.636;11.750;2022-08-19T00:38:38;22.60;77.40
73137;DHT22;62977;45.636;11.750;2022-08-19T00:41:09;22.50;77.30
73137;DHT22;62977;45.636;11.750;2022-08-19T00:43:35;22.60;77.80
73137;DHT22;62977;45.636;11.750;2022-08-19T00:46:01;22.50;77.80
73137;DHT22;62977;45.636;11.750;2022-08-19T00:48:30;22.40;78.10
73137;DHT22;62977;45.636;11.750;2022-08-19T00:50:57;22.30;77.90
73137;DHT22;62977;45.636;11.750;2022-08-19T00:53:27;22.30;78.00
73137;DHT22;62977;45.636;11.750;2022-08-19T00:55:56;22.50;78.10
73137;DHT22;62977;45.636;11.750;2022-08-19T00:58:27;22.50;77.80
73137;DHT22;62977;45.636;11.750;2022-08-19T01:00:54;22.60;77.60
73137;DHT22;62977;45.636;11.750;2022-08-19T01:03:21;22.60;78.20
73137;DHT22;62977;45.636;11.750;2022-08-19T01:05:49;22.60;77.90
73137;DHT22;62977;45.636;11.750;2022-08-19T01:08:18;22.70;77.90
73137;DHT22;62977;45.636;11.750;2022-08-19T01:10:48;22.70;77.70
73137;DHT22;62977;45.636;11.750;2022-08-19T01:13:18;22.70;77.90
73137;DHT22;62977;45.636;11.750;2022-08-19T01:16:00;22.60;78.30
73137;DHT22;62977;45.636;11.750;2022-08-19T01:18:27;22.60;78.40
73137;DHT22;62977;45.636;11.750;2022-08-19T01:20:55;22.50;78.40
73137;DHT22;62977;45.636;11.750;2022-08-19T01:23:22;22.40;78.30
73137;DHT22;62977;45.636;11.750;2022-08-19T01:26:11;22.40;78.20
73137;DHT22;62977;45.636;11.750;2022-08-19T01:28:37;22.50;78.20
73137;DHT22;62977;45.636;11.750;2022-08-19T01:31:04;22.40;77.90
73137;DHT22;62977;45.636;11.750;2022-08-19T01:33:30;22.30;78.10
73137;DHT22;62977;45.636;11.750;2022-08-19T01:36:08;22.10;78.40
73137;DHT22;62977;45.636;11.750;2022-08-19T01:38:37;22.10;78.40
73137;DHT22;62977;45.636;11.750;2022-08-19T01:41:03;22.00;78.80
73137;DHT22;62977;45.636;11.750;2022-08-19T01:43:29;21.90;79.10
73137;DHT22;62977;45.636;11.750;2022-08-19T01:45:55;21.90;79.00
73137;DHT22;62977;45.636;11.750;2022-08-19T01:48:20;21.90;78.70
73137;DHT22;62977;45.636;11.750;2022-08-19T01:50:46;22.00;78.40
73137;DHT22;62977;45.636;11.750;2022-08-19T01:53:13;22.20;78.00
73137;DHT22;62977;45.636;11.750;2022-08-19T01:55:40;22.20;77.60
73137;DHT22;62977;45.636;11.750;2022-08-19T01:58:12;22.20;77.20
73137;DHT22;62977;45.636;11.750;2022-08-19T02:00:40;22.40;76.70
73137;DHT22;62977;45.636;11.750;2022-08-19T02:03:06;22.50;76.50
73137;DHT22;62977;45.636;11.750;2022-08-19T02:05:34;22.50;77.00
73137;DHT22;62977;45.636;11.750;2022-08-19T02:08:00;22.50;77.40
73137;DHT22;62977;45.636;11.750;2022-08-19T02:10:26;22.50;76.40
73137;DHT22;62977;45.636;11.750;2022-08-19T02:12:51;22.10;78.10
73137;DHT22;62977;45.636;11.750;2022-08-19T02:15:19;21.90;78.80
73137;DHT22;62977;45.636;11.750;2022-08-19T02:17:46;22.00;78.40
73137;DHT22;62977;45.636;11.750;2022-08-19T02:20:12;22.30;77.90
73137;DHT22;62977;45.636;11.750;2022-08-19T02:22:39;22.40;77.80
73137;DHT22;62977;45.636;11.750;2022-08-19T02:25:07;22.30;78.00
73137;DHT22;62977;45.636;11.750;2022-08-19T02:27:33;22.10;78.20
73137;DHT22;62977;45.636;11.750;2022-08-19T02:29:59;22.10;78.50
73137;DHT22;62977;45.636;11.750;2022-08-19T02:32:26;21.80;78.80
73137;DHT22;62977;45.636;11.750;2022-08-19T02:34:52;21.90;78.70
73137;DHT22;62977;45.636;11.750;2022-08-19T02:37:18;21.90;78.70
73137;DHT22;62977;45.636;11.750;2022-08-19T02:40:11;21.80;79.20
73137;DHT22;62977;45.636;11.750;2022-08-19T02:42:36;21.80;78.70
73137;DHT22;62977;45.636;11.750;2022-08-19T02:45:02;21.80;78.50
73137;DHT22;62977;45.636;11.750;2022-08-19T02:47:28;21.90;78.60
73137;DHT22;62977;45.636;11.750;2022-08-19T02:49:54;21.90;77.80
73137;DHT22;62977;45.636;11.750;2022-08-19T02:52:19;22.00;77.10
73137;DHT22;62977;45.636;11.750;2022-08-19T02:54:45;21.80;77.80
73137;DHT22;62977;45.636;11.750;2022-08-19T02:57:11;21.70;78.30
73137;DHT22;62977;45.636;11.750;2022-08-19T02:59:37;21.90;78.40
73137;DHT22;62977;45.636;11.750;2022-08-19T03:02:03;22.00;78.20
73137;DHT22;62977;45.636;11.750;2022-08-19T03:04:28;21.90;77.90
73137;DHT22;62977;45.636;11.750;2022-08-19T03:06:55;21.80;78.10
73137;DHT22;62977;45.636;11.750;2022-08-19T03:09:20;21.70;77.30
73137;DHT22;62977;45.636;11.750;2022-08-19T03:11:46;21.90;77.10
73137;DHT22;62977;45.636;11.750;2022-08-19T03:14:13;22.00;77.10
73137;DHT22;62977;45.636;11.750;2022-08-19T03:16:47;21.80;76.70
73137;DHT22;62977;45.636;11.750;2022-08-19T03:19:15;21.90;76.60
73137;DHT22;62977;45.636;11.750;2022-08-19T03:21:43;22.00;76.60
73137;DHT22;62977;45.636;11.750;2022-08-19T03:24:10;22.00;76.60
73137;DHT22;62977;45.636;11.750;2022-08-19T03:26:39;22.00;76.80
73137;DHT22;62977;45.636;11.750;2022-08-19T03:29:06;22.00;76.80
73137;DHT22;62977;45.636;11.750;2022-08-19T03:31:32;22.10;76.40
73137;DHT22;62977;45.636;11.750;2022-08-19T03:33:57;22.20;76.60
73137;DHT22;62977;45.636;11.750;2022-08-19T03:36:25;22.10;76.40
73137;DHT22;62977;45.636;11.750;2022-08-19T03:38:54;22.20;76.30
73137;DHT22;62977;45.636;11.750;2022-08-19T03:41:25;22.20;76.30
73137;DHT22;62977;45.636;11.750;2022-08-19T03:43:52;22.20;76.10
73137;DHT22;62977;45.636;11.750;2022-08-19T03:46:22;22.20;76.50
73137;DHT22;62977;45.636;11.750;2022-08-19T03:48:51;22.10;76.10
73137;DHT22;62977;45.636;11.750;2022-08-19T03:51:31;22.20;76.00
73137;DHT22;62977;45.636;11.750;2022-08-19T03:53:58;22.10;76.70
73137;DHT22;62977;45.636;11.750;2022-08-19T03:56:25;22.00;76.80
73137;DHT22;62977;45.636;11.750;2022-08-19T03:58:51;22.00;76.70
73137;DHT22;62977;45.636;11.750;2022-08-19T04:01:21;21.90;76.50
73137;DHT22;62977;45.636;11.750;2022-08-19T04:03:47;21.80;76.90
73137;DHT22;62977;45.636;11.750;2022-08-19T04:06:18;21.80;76.90
73137;DHT22;62977;45.636;11.750;2022-08-19T04:08:47;21.90;76.80
73137;DHT22;62977;45.636;11.750;2022-08-19T04:11:17;21.80;76.60
73137;DHT22;62977;45.636;11.750;2022-08-19T04:13:43;21.90;76.70
73137;DHT22;62977;45.636;11.750;2022-08-19T04:16:10;21.80;76.60
73137;DHT22;62977;45.636;11.750;2022-08-19T04:18:37;21.90;76.40
73137;DHT22;62977;45.636;11.750;2022-08-19T04:21:04;21.80;76.30
73137;DHT22;62977;45.636;11.750;2022-08-19T04:23:31;21.90;76.80
73137;DHT22;62977;45.636;11.750;2022-08-19T04:25:57;21.60;76.60
73137;DHT22;62977;45.636;11.750;2022-08-19T04:28:24;21.50;75.90
73137;DHT22;62977;45.636;11.750;2022-08-19T04:30:52;21.70;75.90
73137;DHT22;62977;45.636;11.750;2022-08-19T04:33:21;21.70;75.80
73137;DHT22;62977;45.636;11.750;2022-08-19T04:35:50;21.70;76.00
73137;DHT22;62977;45.636;11.750;2022-08-19T04:38:18;21.70;75.90
73137;DHT22;62977;45.636;11.750;2022-08-19T04:40:47;21.80;75.70
73137;DHT22;62977;45.636;11.750;2022-08-19T04:43:33;21.80;76.10
73137;DHT22;62977;45.636;11.750;2022-08-19T04:46:05;21.70;75.90
73137;DHT22;62977;45.636;11.750;2022-08-19T04:48:31;21.70;76.00
73137;DHT22;62977;45.636;11.750;2022-08-19T04:50:57;21.50;76.00
73137;DHT22;62977;45.636;11.750;2022-08-19T04:53:28;21.70;76.20
73137;DHT22;62977;45.636;11.750;2022-08-19T04:55:55;21.50;76.00
73137;DHT22;62977;45.636;11.750;2022-08-19T04:58:22;21.60;76.00
73137;DHT22;62977;45.636;11.750;2022-08-19T05:00:48;21.70;76.10
73137;DHT22;62977;45.636;11.750;2022-08-19T05:03:14;21.80;76.00
73137;DHT22;62977;45.636;11.750;2022-08-19T05:05:44;21.80;76.80
73137;DHT22;62977;45.636;11.750;2022-08-19T05:08:11;21.90;76.70
73137;DHT22;62977;45.636;11.750;2022-08-19T05:10:40;21.90;76.60
73137;DHT22;62977;45.636;11.750;2022-08-19T05:13:06;21.80;76.90
73137;DHT22;62977;45.636;11.750;2022-08-19T05:15:31;21.90;76.80
73137;DHT22;62977;45.636;11.750;2022-08-19T05:17:57;21.90;76.70
73137;DHT22;62977;45.636;11.750;2022-08-19T05:20:41;22.00;76.50
73137;DHT22;62977;45.636;11.750;2022-08-19T05:23:26;22.00;76.70
73137;DHT22;62977;45.636;11.750;2022-08-19T05:25:51;22.00;76.50
73137;DHT22;62977;45.636;11.750;2022-08-19T05:28:19;22.00;76.30
73137;DHT22;62977;45.636;11.750;2022-08-19T05:30:45;22.00;76.40
73137;DHT22;62977;45.636;11.750;2022-08-19T05:33:11;22.10;76.60
73137;DHT22;62977;45.636;11.750;2022-08-19T05:35:40;22.10;76.50
73137;DHT22;62977;45.636;11.750;2022-08-19T05:38:07;22.10;76.00
73137;DHT22;62977;45.636;11.750;2022-08-19T05:40:38;22.20;76.40
73137;DHT22;62977;45.636;11.750;2022-08-19T05:43:06;22.10;76.40
73137;DHT22;62977;45.636;11.750;2022-08-19T05:45:37;22.00;76.60
73137;DHT22;62977;45.636;11.750;2022-08-19T05:48:03;22.20;76.40
73137;DHT22;62977;45.636;11.750;2022-08-19T05:50:28;22.40;76.30
73137;DHT22;62977;45.636;11.750;2022-08-19T05:52:55;22.60;76.20
73137;DHT22;62977;45.636;11.750;2022-08-19T05:55:20;22.70;76.00
73137;DHT22;62977;45.636;11.750;2022-08-19T05:57:48;22.90;75.70
73137;DHT22;62977;45.636;11.750;2022-08-19T06:00:14;23.00;75.70
73137;DHT22;62977;45.636;11.750;2022-08-19T06:02:40;23.10;75.40
73137;DHT22;62977;45.636;11.750;2022-08-19T06:05:07;23.00;75.70
73137;DHT22;62977;45.636;11.750;2022-08-19T06:07:38;23.00;75.70
73137;DHT22;62977;45.636;11.750;2022-08-19T06:10:07;23.00;75.40
73137;DHT22;62977;45.636;11.750;2022-08-19T06:12:33;22.90;75.30
73137;DHT22;62977;45.636;11.750;2022-08-19T06:15:06;22.90;75.20
73137;DHT22;62977;45.636;11.750;2022-08-19T06:17:33;23.10;75.00
73137;DHT22;62977;45.636;11.750;2022-08-19T06:20:00;23.00;74.90
73137;DHT22;62977;45.636;11.750;2022-08-19T06:22:27;22.90;75.40
73137;DHT22;62977;45.636;11.750;2022-08-19T06:24:53;23.10;74.90
73137;DHT22;62977;45.636;11.750;2022-08-19T06:27:21;23.00;75.20
73137;DHT22;62977;45.636;11.750;2022-08-19T06:29:47;23.00;75.10
73137;DHT22;62977;45.636;11.750;2022-08-19T06:32:15;23.20;75.00
73137;DHT22;62977;45.636;11.750;2022-08-19T06:34:42;23.40;75.30
73137;DHT22;62977;45.636;11.750;2022-08-19T06:37:08;23.60;74.80
73137;DHT22;62977;45.636;11.750;2022-08-19T06:39:39;23.60;74.10
73137;DHT22;62977;45.636;11.750;2022-08-19T06:42:06;23.80;74.10
73137;DHT22;62977;45.636;11.750;2022-08-19T06:44:35;23.80;73.60
73137;DHT22;62977;45.636;11.750;2022-08-19T06:47:06;23.80;74.20
73137;DHT22;62977;45.636;11.750;2022-08-19T06:49:32;24.00;73.90
73137;DHT22;62977;45.636;11.750;2022-08-19T06:51:59;24.00;73.50
73137;DHT22;62977;45.636;11.750;2022-08-19T06:54:25;24.00;73.60
73137;DHT22;62977;45.636;11.750;2022-08-19T06:56:52;23.80;73.90
73137;DHT22;62977;45.636;11.750;2022-08-19T06:59:20;23.90;73.70
73137;DHT22;62977;45.636;11.750;2022-08-19T07:01:51;23.70;74.20
73137;DHT22;62977;45.636;11.750;2022-08-19T07:04:21;23.60;74.60
73137;DHT22;62977;45.636;11.750;2022-08-19T07:06:47;23.70;74.70
73137;DHT22;62977;45.636;11.750;2022-08-19T07:09:15;23.60;74.10
73137;DHT22;62977;45.636;11.750;2022-08-19T07:11:48;23.50;74.70
73137;DHT22;62977;45.636;11.750;2022-08-19T07:14:15;23.50;74.60
73137;DHT22;62977;45.636;11.750;2022-08-19T07:16:44;23.50;74.70
73137;DHT22;62977;45.636;11.750;2022-08-19T07:19:11;23.50;74.50
73137;DHT22;62977;45.636;11.750;2022-08-19T07:21:37;23.60;74.70
73137;DHT22;62977;45.636;11.750;2022-08-19T07:24:03;23.50;74.80
73137;DHT22;62977;45.636;11.750;2022-08-19T07:26:31;23.30;75.00
73137;DHT22;62977;45.636;11.750;2022-08-19T07:28:58;23.20;75.60
73137;DHT22;62977;45.636;11.750;2022-08-19T07:31:27;23.20;75.70
73137;DHT22;62977;45.636;11.750;2022-08-19T07:33:54;23.20;75.80
73137;DHT22;62977;45.636;11.750;2022-08-19T07:36:26;23.20;75.30
73137;DHT22;62977;45.636;11.750;2022-08-19T07:38:59;23.20;75.80
73137;DHT22;62977;45.636;11.750;2022-08-19T07:41:27;23.20;75.20
73137;DHT22;62977;45.636;11.750;2022-08-19T07:43:54;23.30;74.90
73137;DHT22;62977;45.636;11.750;2022-08-19T07:46:21;23.30;75.20
73137;DHT22;62977;45.636;11.750;2022-08-19T07:48:48;23.20;74.70
73137;DHT22;62977;45.636;11.750;2022-08-19T07:51:18;23.20;74.80
73137;DHT22;62977;45.636;11.750;2022-08-19T07:53:44;23.20;74.60
73137;DHT22;62977;45.636;11.750;2022-08-19T07:56:12;23.30;74.80
73137;DHT22;62977;45.636;11.750;2022-08-19T07:58:41;23.10;74.70
73137;DHT22;62977;45.636;11.750;2022-08-19T08:01:11;23.00;75.00
73137;DHT22;62977;45.636;11.750;2022-08-19T08:03:38;22.80;75.20
73137;DHT22;62977;45.636;11.750;2022-08-19T08:06:24;22.90;75.30
73137;DHT22;62977;45.636;11.750;2022-08-19T08:09:30;22.80;75.20
73137;DHT22;62977;45.636;11.750;2022-08-19T08:12:01;23.00;75.50
73137;DHT22;62977;45.636;11.750;2022-08-19T08:14:30;22.90;75.50
73137;DHT22;62977;45.636;11.750;2022-08-19T08:16:56;22.90;75.70
73137;DHT22;62977;45.636;11.750;2022-08-19T08:19:23;22.90;75.40
73137;DHT22;62977;45.636;11.750;2022-08-19T08:21:50;23.00;75.20
73137;DHT22;62977;45.636;11.750;2022-08-19T08:24:17;23.10;75.00
73137;DHT22;62977;45.636;11.750;2022-08-19T08:26:43;23.10;74.80
73137;DHT22;62977;45.636;11.750;2022-08-19T08:29:10;23.20;74.70
73137;DHT22;62977;45.636;11.750;2022-08-19T08:31:37;23.10;74.70
73137;DHT22;62977;45.636;11.750;2022-08-19T08:34:03;22.90;75.20
73137;DHT22;62977;45.636;11.750;2022-08-19T08:36:29;22.80;75.70
73137;DHT22;62977;45.636;11.750;2022-08-19T08:38:59;22.90;75.50
73137;DHT22;62977;45.636;11.750;2022-08-19T08:41:40;22.90;75.40
73137;DHT22;62977;45.636;11.750;2022-08-19T08:44:17;22.90;75.20
73137;DHT22;62977;45.636;11.750;2022-08-19T08:46:49;23.00;75.40
73137;DHT22;62977;45.636;11.750;2022-08-19T08:49:23;23.10;75.30
73137;DHT22;62977;45.636;11.750;2022-08-19T08:52:11;23.00;75.40
73137;DHT22;62977;45.636;11.750;2022-08-19T08:54:44;22.60;76.60
73137;DHT22;62977;45.636;11.750;2022-08-19T08:57:15;22.10;77.60
73137;DHT22;62977;45.636;11.750;2022-08-19T08:59:43;22.00;78.00
73137;DHT22;62977;45.636;11.750;2022-08-19T09:02:10;22.00;77.70
73137;DHT22;62977;45.636;11.750;2022-08-19T09:04:37;22.00;76.00
73137;DHT22;62977;45.636;11.750;2022-08-19T09:09:50;22.20;76.20
73137;DHT22;62977;45.636;11.750;2022-08-19T09:15:14;22.50;75.70
73137;DHT22;62977;45.636;11.750;2022-08-19T09:17:41;22.60;75.70
73137;DHT22;62977;45.636;11.750;2022-08-19T09:22:41;22.60;75.10
73137;DHT22;62977;45.636;11.750;2022-08-19T09:25:10;22.80;75.30
73137;DHT22;62977;45.636;11.750;2022-08-19T09:27:38;22.50;75.80
73137;DHT22;62977;45.636;11.750;2022-08-19T09:30:06;22.30;75.40
73137;DHT22;62977;45.636;11.750;2022-08-19T09:32:33;22.30;74.90
73137;DHT22;62977;45.636;11.750;2022-08-19T09:34:59;22.20;75.50
73137;DHT22;62977;45.636;11.750;2022-08-19T09:37:26;22.30;75.50
73137;DHT22;62977;45.636;11.750;2022-08-19T09:39:52;22.40;75.50
73137;DHT22;62977;45.636;11.750;2022-08-19T09:42:18;22.20;75.80
73137;DHT22;62977;45.636;11.750;2022-08-19T09:44:44;22.60;75.60
73137;DHT22;62977;45.636;11.750;2022-08-19T09:47:11;22.90;74.50
73137;DHT22;62977;45.636;11.750;2022-08-19T09:49:38;22.90;73.70
73137;DHT22;62977;45.636;11.750;2022-08-19T09:52:08;22.90;72.90
73137;DHT22;62977;45.636;11.750;2022-08-19T09:54:34;23.20;73.30
73137;DHT22;62977;45.636;11.750;2022-08-19T09:57:00;23.10;72.90
73137;DHT22;62977;45.636;11.750;2022-08-19T09:59:26;23.20;72.70
73137;DHT22;62977;45.636;11.750;2022-08-19T10:01:52;23.30;72.60
73137;DHT22;62977;45.636;11.750;2022-08-19T10:04:18;23.30;72.60
73137;DHT22;62977;45.636;11.750;2022-08-19T10:06:47;23.40;72.10
73137;DHT22;62977;45.636;11.750;2022-08-19T10:09:15;23.40;72.10
73137;DHT22;62977;45.636;11.750;2022-08-19T10:11:42;23.70;72.40
73137;DHT22;62977;45.636;11.750;2022-08-19T10:14:08;24.00;71.20
73137;DHT22;62977;45.636;11.750;2022-08-19T10:16:36;24.30;70.90
73137;DHT22;62977;45.636;11.750;2022-08-19T10:19:02;24.40;70.40
73137;DHT22;62977;45.636;11.750;2022-08-19T10:21:31;24.20;70.70
73137;DHT22;62977;45.636;11.750;2022-08-19T10:23:59;24.40;70.50
73137;DHT22;62977;45.636;11.750;2022-08-19T10:26:32;24.10;69.40
73137;DHT22;62977;45.636;11.750;2022-08-19T10:28:58;24.50;70.40
73137;DHT22;62977;45.636;11.750;2022-08-19T10:31:29;24.60;69.60
73137;DHT22;62977;45.636;11.750;2022-08-19T10:33:56;24.40;71.00
73137;DHT22;62977;45.636;11.750;2022-08-19T10:36:29;24.80;70.40
73137;DHT22;62977;45.636;11.750;2022-08-19T10:38:57;25.10;68.70
73137;DHT22;62977;45.636;11.750;2022-08-19T10:41:27;25.10;68.70
73137;DHT22;62977;45.636;11.750;2022-08-19T10:43:58;25.00;67.80
73137;DHT22;62977;45.636;11.750;2022-08-19T10:46:26;25.20;68.30
73137;DHT22;62977;45.636;11.750;2022-08-19T10:48:53;25.30;67.50
73137;DHT22;62977;45.636;11.750;2022-08-19T10:51:19;25.30;67.60
73137;DHT22;62977;45.636;11.750;2022-08-19T10:54:03;25.30;66.70
73137;DHT22;62977;45.636;11.750;2022-08-19T10:56:29;25.30;66.70
73137;DHT22;62977;45.636;11.750;2022-08-19T10:59:15;24.90;68.30
73137;DHT22;62977;45.636;11.750;2022-08-19T11:01:43;24.70;69.60
73137;DHT22;62977;45.636;11.750;2022-08-19T11:04:09;24.70;67.80
73137;DHT22;62977;45.636;11.750;2022-08-19T11:06:40;24.70;67.90
73137;DHT22;62977;45.636;11.750;2022-08-19T11:09:07;25.10;67.80
73137;DHT22;62977;45.636;11.750;2022-08-19T11:11:34;25.60;65.80
73137;DHT22;62977;45.636;11.750;2022-08-19T11:14:11;25.60;64.20
73137;DHT22;62977;45.636;11.750;2022-08-19T11:16:37;26.00;64.10
73137;DHT22;62977;45.636;11.750;2022-08-19T11:19:07;26.10;63.10
73137;DHT22;62977;45.636;11.750;2022-08-19T11:21:38;26.20;62.50
73137;DHT22;62977;45.636;11.750;2022-08-19T11:24:17;26.40;61.20
73137;DHT22;62977;45.636;11.750;2022-08-19T11:26:44;26.40;61.30
73137;DHT22;62977;45.636;11.750;2022-08-19T11:29:12;26.20;63.60
73137;DHT22;62977;45.636;11.750;2022-08-19T11:31:41;26.00;63.20
73137;DHT22;62977;45.636;11.750;2022-08-19T11:34:10;25.50;66.70
73137;DHT22;62977;45.636;11.750;2022-08-19T11:36:39;25.40;67.20
73137;DHT22;62977;45.636;11.750;2022-08-19T11:39:06;25.20;68.30
73137;DHT22;62977;45.636;11.750;2022-08-19T11:41:32;24.80;67.90
73137;DHT22;62977;45.636;11.750;2022-08-19T11:43:58;24.60;70.20
73137;DHT22;62977;45.636;11.750;2022-08-19T11:46:25;24.50;70.50
73137;DHT22;62977;45.636;11.750;2022-08-19T11:48:52;24.50;70.30
73137;DHT22;62977;45.636;11.750;2022-08-19T11:51:22;24.50;70.20
73137;DHT22;62977;45.636;11.750;2022-08-19T11:53:48;24.50;70.60
73137;DHT22;62977;45.636;11.750;2022-08-19T11:56:16;24.40;71.10
73137;DHT22;62977;45.636;11.750;2022-08-19T11:58:41;24.30;71.70
73137;DHT22;62977;45.636;11.750;2022-08-19T12:01:08;24.40;71.80
73137;DHT22;62977;45.636;11.750;2022-08-19T12:03:35;24.50;71.70
73137;DHT22;62977;45.636;11.750;2022-08-19T12:06:12;24.60;71.80
73137;DHT22;62977;45.636;11.750;2022-08-19T12:08:42;24.80;71.20
73137;DHT22;62977;45.636;11.750;2022-08-19T12:11:09;24.70;71.40
73137;DHT22;62977;45.636;11.750;2022-08-19T12:13:36;24.90;71.30
73137;DHT22;62977;45.636;11.750;2022-08-19T12:16:08;25.00;71.20
73137;DHT22;62977;45.636;11.750;2022-08-19T12:18:36;24.80;71.50
73137;DHT22;62977;45.636;11.750;2022-08-19T12:21:02;25.00;71.10
73137;DHT22;62977;45.636;11.750;2022-08-19T12:23:29;24.90;71.10
73137;DHT22;62977;45.636;11.750;2022-08-19T12:25:54;24.80;71.40
73137;DHT22;62977;45.636;11.750;2022-08-19T12:28:23;25.10;71.30
73137;DHT22;62977;45.636;11.750;2022-08-19T12:30:50;25.30;69.70
73137;DHT22;62977;45.636;11.750;2022-08-19T12:33:19;25.20;69.10
73137;DHT22;62977;45.636;11.750;2022-08-19T12:35:49;25.30;68.20
73137;DHT22;62977;45.636;11.750;2022-08-19T12:38:15;26.10;67.10
73137;DHT22;62977;45.636;11.750;2022-08-19T12:40:41;26.10;64.60
73137;DHT22;62977;45.636;11.750;2022-08-19T12:43:07;26.90;62.00
73137;DHT22;62977;45.636;11.750;2022-08-19T12:45:33;27.30;60.70
73137;DHT22;62977;45.636;11.750;2022-08-19T12:47:59;27.10;59.20
73137;DHT22;62977;45.636;11.750;2022-08-19T12:50:25;27.50;57.40
73137;DHT22;62977;45.636;11.750;2022-08-19T12:52:51;27.80;57.40
73137;DHT22;62977;45.636;11.750;2022-08-19T12:55:17;27.80;54.90
73137;DHT22;62977;45.636;11.750;2022-08-19T12:57:44;28.10;54.40
73137;DHT22;62977;45.636;11.750;2022-08-19T13:00:14;29.10;52.70
73137;DHT22;62977;45.636;11.750;2022-08-19T13:02:42;29.40;49.90
73137;DHT22;62977;45.636;11.750;2022-08-19T13:05:13;29.80;50.20
73137;DHT22;62977;45.636;11.750;2022-08-19T13:07:40;30.00;49.10
73137;DHT22;62977;45.636;11.750;2022-08-19T13:10:07;30.80;48.50
73137;DHT22;62977;45.636;11.750;2022-08-19T13:12:33;30.50;46.80
73137;DHT22;62977;45.636;11.750;2022-08-19T13:14:59;30.70;47.20
73137;DHT22;62977;45.636;11.750;2022-08-19T13:17:24;31.20;46.90
73137;DHT22;62977;45.636;11.750;2022-08-19T13:19:50;31.60;45.70
73137;DHT22;62977;45.636;11.750;2022-08-19T13:22:16;31.40;46.80
73137;DHT22;62977;45.636;11.750;2022-08-19T13:24:42;31.50;46.60
73137;DHT22;62977;45.636;11.750;2022-08-19T13:27:08;31.30;46.10
73137;DHT22;62977;45.636;11.750;2022-08-19T13:29:33;30.90;46.40
73137;DHT22;62977;45.636;11.750;2022-08-19T13:32:17;30.80;48.20
73137;DHT22;62977;45.636;11.750;2022-08-19T13:35:03;30.90;47.60
73137;DHT22;62977;45.636;11.750;2022-08-19T13:37:28;31.00;47.10
73137;DHT22;62977;45.636;11.750;2022-08-19T13:40:19;30.40;48.20
73137;DHT22;62977;45.636;11.750;2022-08-19T13:42:48;29.60;50.40
73137;DHT22;62977;45.636;11.750;2022-08-19T13:45:17;30.30;50.00
73137;DHT22;62977;45.636;11.750;2022-08-19T13:47:46;29.60;51.00
73137;DHT22;62977;45.636;11.750;2022-08-19T13:50:14;29.60;50.70
73137;DHT22;62977;45.636;11.750;2022-08-19T13:52:41;30.10;48.80
73137;DHT22;62977;45.636;11.750;2022-08-19T13:55:09;30.90;47.20
73137;DHT22;62977;45.636;11.750;2022-08-19T13:57:35;31.30;46.10
73137;DHT22;62977;45.636;11.750;2022-08-19T14:00:03;31.30;45.90
73137;DHT22;62977;45.636;11.750;2022-08-19T14:02:29;31.70;45.90
73137;DHT22;62977;45.636;11.750;2022-08-19T14:04:54;32.30;44.20
73137;DHT22;62977;45.636;11.750;2022-08-19T14:07:20;32.40;44.40
73137;DHT22;62977;45.636;11.750;2022-08-19T14:09:49;32.80;43.10
73137;DHT22;62977;45.636;11.750;2022-08-19T14:12:19;32.90;42.50
73137;DHT22;62977;45.636;11.750;2022-08-19T14:14:46;33.20;41.10
73137;DHT22;62977;45.636;11.750;2022-08-19T14:17:11;34.00;40.50
73137;DHT22;62977;45.636;11.750;2022-08-19T14:19:37;34.10;39.80
73137;DHT22;62977;45.636;11.750;2022-08-19T14:22:03;33.70;39.80
73137;DHT22;62977;45.636;11.750;2022-08-19T14:24:29;33.60;39.50
73137;DHT22;62977;45.636;11.750;2022-08-19T14:51:11;30.70;45.60
73137;DHT22;62977;45.636;11.750;2022-08-19T14:53:37;31.90;42.70
73137;DHT22;62977;45.636;11.750;2022-08-19T14:56:12;32.10;43.10
73137;DHT22;62977;45.636;11.750;2022-08-19T14:58:40;31.90;42.50
73137;DHT22;62977;45.636;11.750;2022-08-19T15:01:06;31.40;43.90
73137;DHT22;62977;45.636;11.750;2022-08-19T15:38:21;28.50;52.70
73137;DHT22;62977;45.636;11.750;2022-08-19T15:40:49;27.40;49.00
73137;DHT22;62977;45.636;11.750;2022-08-19T15:43:16;27.30;49.10
73137;DHT22;62977;45.636;11.750;2022-08-19T15:45:43;27.10;49.50
73137;DHT22;62977;45.636;11.750;2022-08-19T15:48:09;27.70;49.00
73137;DHT22;62977;45.636;11.750;2022-08-19T15:50:34;27.40;49.30
73137;DHT22;62977;45.636;11.750;2022-08-19T15:53:04;27.60;49.30
73137;DHT22;62977;45.636;11.750;2022-08-19T15:55:34;27.60;49.20
73137;DHT22;62977;45.636;11.750;2022-08-19T15:58:06;27.80;48.50
73137;DHT22;62977;45.636;11.750;2022-08-19T16:00:50;28.30;47.40
73137;DHT22;62977;45.636;11.750;2022-08-19T16:03:35;28.60;46.90
73137;DHT22;62977;45.636;11.750;2022-08-19T16:06:19;28.60;47.10
73137;DHT22;62977;45.636;11.750;2022-08-19T16:08:58;28.80;46.70
73137;DHT22;62977;45.636;11.750;2022-08-19T16:11:27;29.10;45.50
